Time;durP1;ratioP1;P1;durP2;ratioP2;P2;SDS_P1;SDS_P2;PMS_P1;PMS_P2;Temp;Humidity;BMP_temperature;BMP_pressure;BME280_temperature;BME280_humidity;BME280_pressure;Samples;Min_cycle;Max_cycle;Signal;HPM_P1;HPM_P2
2023/12/17 00:00:28;;;;;;;14.63;5.15;;;8.10;59.40;;;;;;7833131;22;20070;-91
2023/12/17 00:03:29;;;;;;;10.98;3.88;;;8.10;59.30;;;;;;7777793;22;20032;-91
2023/12/17 00:06:37;;;;;;;12.10;4.97;;;8.20;59.30;;;;;;7829998;22;20018;-91
2023/12/17 00:09:38;;;;;;;7.97;4.47;;;8.20;59.30;;;;;;7778485;22;20018;-94
2023/12/17 00:12:40;;;;;;;9.70;4.63;;;8.20;59.10;;;;;;7777899;22;20011;-91
2023/12/17 00:15:42;;;;;;;10.45;4.13;;;8.20;59.20;;;;;;7778480;22;20554;-91
2023/12/17 00:18:43;;;;;;;7.28;3.83;;;8.10;59.20;;;;;;7754637;22;20082;-92
2023/12/17 00:21:53;;;;;;;5.57;3.35;;;8.10;59.20;;;;;;7780417;22;20074;-92
2023/12/17 00:24:56;;;;;;;6.70;3.83;;;8.20;59.20;;;;;;7806531;22;20421;-91
2023/12/17 00:27:58;;;;;;;7.32;3.50;;;8.20;59.00;;;;;;7781408;22;20034;-90
2023/12/17 00:30:59;;;;;;;7.20;3.72;;;8.10;59.00;;;;;;7797662;22;20035;-91
2023/12/17 00:34:01;;;;;;;18.40;4.22;;;8.10;59.00;;;;;;7778826;22;20263;-92
2023/12/17 00:37:02;;;;;;;6.88;3.47;;;8.10;58.90;;;;;;7778014;22;20132;-92
2023/12/17 00:40:05;;;;;;;5.70;2.92;;;8.10;58.90;;;;;;7776143;22;20011;-90
2023/12/17 00:43:08;;;;;;;7.20;3.40;;;8.00;59.10;;;;;;7805585;22;20082;-93
2023/12/17 00:46:10;;;;;;;9.98;4.55;;;8.00;59.10;;;;;;7778647;22;20043;-91
2023/12/17 00:49:12;;;;;;;12.02;4.25;;;8.10;59.20;;;;;;7752735;22;20015;-91
2023/12/17 00:52:23;;;;;;;10.95;5.20;;;7.90;59.20;;;;;;7803946;22;20011;-91
2023/12/17 00:55:28;;;;;;;9.40;4.28;;;7.80;59.40;;;;;;7776124;22;20022;-91
2023/12/17 00:58:32;;;;;;;7.82;4.05;;;7.80;59.50;;;;;;7777495;22;20011;-91
2023/12/17 01:01:34;;;;;;;9.23;4.20;;;7.80;59.60;;;;;;7775537;22;20003;-92
2023/12/17 01:04:37;;;;;;;8.68;4.35;;;7.80;59.70;;;;;;7776025;22;20476;-92
2023/12/17 01:07:39;;;;;;;14.00;3.75;;;7.80;59.80;;;;;;7800734;22;20015;-92
2023/12/17 01:10:43;;;;;;;9.35;3.63;;;7.80;59.90;;;;;;7799930;22;20012;-92
2023/12/17 01:13:44;;;;;;;8.88;4.38;;;7.80;59.80;;;;;;7775686;22;20018;-91
2023/12/17 01:16:49;;;;;;;7.22;4.30;;;7.80;59.80;;;;;;7800123;22;20026;-91
2023/12/17 01:19:52;;;;;;;6.32;3.97;;;7.90;59.80;;;;;;7798171;22;20094;-91
2023/12/17 01:22:52;;;;;;;8.07;4.03;;;7.90;59.70;;;;;;7773344;22;20488;-90
2023/12/17 01:25:55;;;;;;;7.57;3.70;;;7.90;59.70;;;;;;7799359;22;20086;-90
2023/12/17 01:28:59;;;;;;;9.43;5.63;;;7.80;59.70;;;;;;7798630;22;20098;-90
2023/12/17 01:32:08;;;;;;;7.70;4.88;;;8.00;59.90;;;;;;7773701;22;20137;-92
2023/12/17 01:35:09;;;;;;;7.95;4.07;;;7.80;59.90;;;;;;7749971;22;20018;-91
2023/12/17 01:38:10;;;;;;;7.95;4.10;;;7.80;60.70;;;;;;7748268;22;20387;-92
2023/12/17 01:41:12;;;;;;;4.90;3.10;;;7.80;60.00;;;;;;7775284;22;20015;-90
2023/12/17 01:44:14;;;;;;;7.63;3.80;;;7.80;60.00;;;;;;7775398;22;20086;-91
2023/12/17 01:47:21;;;;;;;6.20;3.45;;;7.80;59.90;;;;;;7799666;22;20424;-91
2023/12/17 01:50:23;;;;;;;8.75;3.60;;;7.80;59.90;;;;;;7800577;22;20004;-91
2023/12/17 01:53:28;;;;;;;21.48;4.38;;;7.70;59.70;;;;;;7752919;22;20027;-89
2023/12/17 01:56:31;;;;;;;5.97;4.15;;;7.70;59.70;;;;;;7751207;22;20106;-89
2023/12/17 01:59:35;;;;;;;10.73;5.20;;;7.70;59.80;;;;;;7748004;22;20094;-91
2023/12/17 02:02:38;;;;;;;9.50;4.15;;;7.70;59.90;;;;;;7773582;22;20030;-91
2023/12/17 02:05:40;;;;;;;11.80;5.20;;;7.70;60.00;;;;;;7775151;22;20039;-91
2023/12/17 02:08:41;;;;;;;14.55;5.72;;;7.60;60.20;;;;;;7773116;22;20011;-91
2023/12/17 02:11:42;;;;;;;8.73;3.95;;;7.60;60.40;;;;;;7722686;22;20015;-92
2023/12/17 02:14:44;;;;;;;9.85;4.20;;;7.60;60.60;;;;;;7799075;22;20051;-92
2023/12/17 02:17:49;;;;;;;5.32;3.22;;;7.30;60.70;;;;;;7767109;22;20062;-90
2023/12/17 02:21:01;;;;;;;13.80;3.97;;;7.40;61.30;;;;;;7770686;22;20008;-91
2023/12/17 02:24:04;;;;;;;5.60;3.13;;;7.30;61.80;;;;;;7772814;22;20076;-91
2023/12/17 02:27:06;;;;;;;9.77;5.35;;;7.20;62.40;;;;;;7723513;22;20075;-89
2023/12/17 02:30:08;;;;;;;8.13;4.88;;;7.10;63.00;;;;;;7826369;22;20026;-90
2023/12/17 02:33:09;;;;;;;18.85;6.05;;;7.10;63.10;;;;;;7749339;22;20026;-92
2023/12/17 02:36:11;;;;;;;6.60;4.10;;;7.10;63.30;;;;;;7792305;22;20098;-91
2023/12/17 02:39:15;;;;;;;13.27;5.10;;;7.00;63.50;;;;;;7748533;22;20086;-91
2023/12/17 02:42:19;;;;;;;8.82;4.75;;;7.00;63.60;;;;;;7746138;22;20113;-90
2023/12/17 02:45:20;;;;;;;13.38;5.65;;;7.00;63.60;;;;;;7749339;22;20069;-91
2023/12/17 02:48:21;;;;;;;10.75;5.60;;;7.00;63.60;;;;;;7773763;22;20359;-92
2023/12/17 02:51:24;;;;;;;12.18;4.78;;;6.90;63.50;;;;;;7773912;22;20067;-90
2023/12/17 02:54:26;;;;;;;7.85;5.20;;;6.80;63.60;;;;;;7798666;22;20333;-89
2023/12/17 02:57:27;;;;;;;11.52;4.53;;;6.90;63.60;;;;;;7773168;22;20019;-91
2023/12/17 03:00:29;;;;;;;14.18;5.97;;;6.90;64.00;;;;;;7774858;22;20016;-90
2023/12/17 03:03:31;;;;;;;12.45;5.80;;;6.80;64.00;;;;;;7797313;22;20019;-90
2023/12/17 03:06:37;;;;;;;9.70;5.00;;;6.80;64.30;;;;;;7797023;22;20089;-90
2023/12/17 03:09:42;;;;;;;14.23;4.75;;;6.80;64.40;;;;;;7796394;22;20034;-90
2023/12/17 03:12:44;;;;;;;13.65;5.78;;;6.70;64.30;;;;;;7796721;22;20033;-91
2023/12/17 03:15:46;;;;;;;8.57;5.18;;;6.70;64.40;;;;;;7772670;22;20031;-90
2023/12/17 03:18:49;;;;;;;11.02;5.47;;;6.70;64.60;;;;;;7801886;22;20026;-92
2023/12/17 03:21:50;;;;;;;15.88;6.45;;;6.70;64.70;;;;;;7807940;22;19995;-90
2023/12/17 03:24:55;;;;;;;12.90;5.13;;;6.60;64.90;;;;;;7817322;22;20094;-91
2023/12/17 03:28:00;;;;;;;9.88;5.18;;;6.60;65.00;;;;;;7799945;22;20030;-92
2023/12/17 03:31:08;;;;;;;8.73;4.95;;;6.60;65.00;;;;;;7799302;22;20378;-92
2023/12/17 03:34:11;;;;;;;9.25;5.18;;;6.50;65.10;;;;;;7771145;22;20008;-91
2023/12/17 03:37:15;;;;;;;11.27;4.88;;;6.50;65.10;;;;;;7747977;22;20007;-92
2023/12/17 03:40:17;;;;;;;6.43;4.30;;;6.60;65.10;;;;;;7796272;22;20008;-90
2023/12/17 03:43:18;;;;;;;12.82;4.72;;;6.60;65.00;;;;;;7771414;22;20444;-90
2023/12/17 03:46:23;;;;;;;9.65;5.38;;;6.60;64.90;;;;;;7773375;22;20011;-90
2023/12/17 03:49:25;;;;;;;9.88;4.82;;;6.70;64.90;;;;;;7797418;22;20011;-91
2023/12/17 03:52:33;;;;;;;14.32;5.05;;;6.50;64.70;;;;;;7800782;22;20015;-91
2023/12/17 03:55:37;;;;;;;7.53;4.32;;;6.70;64.70;;;;;;7770940;22;20065;-90
2023/12/17 03:58:42;;;;;;;8.07;4.70;;;6.80;64.60;;;;;;7773297;22;20023;-91
2023/12/17 04:01:46;;;;;;;12.88;5.15;;;6.80;64.70;;;;;;7774468;22;20026;-89
2023/12/17 04:04:51;;;;;;;8.77;4.88;;;6.80;64.80;;;;;;7772356;22;20084;-90
2023/12/17 04:07:52;;;;;;;8.65;3.92;;;6.70;64.90;;;;;;7747737;22;20117;-91
2023/12/17 04:10:55;;;;;;;9.48;5.28;;;6.70;65.00;;;;;;7772339;22;20345;-90
2023/12/17 04:13:57;;;;;;;11.55;4.63;;;6.70;64.90;;;;;;7772199;22;20027;-91
2023/12/17 04:17:23;;;;;;;9.00;4.85;;;6.70;64.90;;;;;;7805960;22;20050;-91
2023/12/17 04:20:26;;;;;;;11.05;5.72;;;6.80;65.00;;;;;;7748038;22;20444;-92
2023/12/17 04:23:27;;;;;;;9.35;4.95;;;6.80;64.90;;;;;;7775281;22;20050;-90
2023/12/17 04:26:28;;;;;;;8.80;4.28;;;6.80;64.90;;;;;;7773501;22;20022;-91
2023/12/17 04:29:32;;;;;;;8.40;3.55;;;6.80;64.90;;;;;;7800793;22;20459;-91
2023/12/17 04:32:32;;;;;;;11.48;4.47;;;6.80;64.60;;;;;;7774864;22;20014;-90
2023/12/17 04:35:33;;;;;;;9.57;3.58;;;6.90;64.60;;;;;;7774168;22;20007;-91
2023/12/17 04:38:35;;;;;;;11.30;4.90;;;6.90;64.50;;;;;;7774390;22;20100;-90
2023/12/17 04:41:39;;;;;;;10.68;4.35;;;6.80;64.40;;;;;;7748864;22;20015;-92
2023/12/17 04:44:41;;;;;;;9.27;5.57;;;6.80;64.40;;;;;;7775510;22;20077;-91
2023/12/17 04:47:42;;;;;;;7.50;3.83;;;6.80;64.50;;;;;;7774595;22;20263;-90
2023/12/17 04:50:44;;;;;;;7.03;4.30;;;6.80;64.60;;;;;;7776145;22;20011;-90
2023/12/17 04:53:46;;;;;;;11.38;5.93;;;6.70;64.90;;;;;;7751306;22;20314;-91
2023/12/17 04:56:48;;;;;;;7.50;5.03;;;6.80;65.00;;;;;;7775903;22;20011;-91
2023/12/17 04:59:51;;;;;;;11.57;5.22;;;6.60;65.10;;;;;;7776825;22;20012;-91
2023/12/17 05:02:52;;;;;;;11.68;5.03;;;6.60;65.30;;;;;;7775094;22;20061;-90
2023/12/17 05:05:53;;;;;;;7.50;4.93;;;6.60;65.50;;;;;;7777182;22;20027;-91
2023/12/17 05:08:59;;;;;;;10.18;4.95;;;6.60;65.70;;;;;;7776059;22;20038;-91
2023/12/17 05:12:02;;;;;;;10.50;5.55;;;6.60;65.70;;;;;;7725641;22;20015;-91
2023/12/17 05:15:04;;;;;;;10.18;5.53;;;6.60;65.70;;;;;;7775650;22;20016;-91
2023/12/17 05:18:06;;;;;;;20.52;6.38;;;6.60;65.60;;;;;;7776513;22;20033;-90
2023/12/17 05:21:10;;;;;;;10.35;5.55;;;6.60;65.60;;;;;;7777029;22;20075;-89
2023/12/17 05:24:10;;;;;;;16.30;6.70;;;6.50;65.70;;;;;;7801743;22;20051;-91
2023/12/17 05:27:11;;;;;;;10.10;6.60;;;6.40;66.00;;;;;;7776246;22;20455;-90
2023/12/17 05:30:12;;;;;;;12.05;5.75;;;6.40;66.10;;;;;;7775671;22;20031;-92
2023/12/17 05:33:14;;;;;;;12.55;4.95;;;6.30;66.40;;;;;;7801220;22;20462;-92
2023/12/17 05:36:16;;;;;;;7.38;4.32;;;6.30;66.50;;;;;;7785709;22;20011;-90
2023/12/17 05:39:17;;;;;;;7.50;5.15;;;6.30;66.70;;;;;;7790282;22;20021;-93
2023/12/17 05:42:19;;;;;;;13.15;5.75;;;6.20;66.80;;;;;;7771149;22;20030;-91
2023/12/17 05:45:23;;;;;;;7.25;4.75;;;6.20;66.70;;;;;;7793998;22;20003;-91
2023/12/17 05:48:25;;;;;;;9.57;5.60;;;6.20;66.90;;;;;;7781051;22;20073;-91
2023/12/17 05:51:26;;;;;;;8.05;4.60;;;6.20;66.90;;;;;;7778518;22;20027;-90
2023/12/17 05:54:27;;;;;;;12.43;5.55;;;6.10;66.90;;;;;;7750982;22;20031;-90
2023/12/17 05:57:28;;;;;;;9.77;4.22;;;6.10;67.10;;;;;;7773894;22;20121;-90
2023/12/17 06:00:40;;;;;;;8.87;4.00;;;6.10;68.10;;;;;;7802321;22;20102;-91
2023/12/17 06:03:42;;;;;;;5.88;3.65;;;6.00;67.20;;;;;;7751167;22;20015;-92
2023/12/17 06:06:46;;;;;;;10.13;4.70;;;6.00;67.10;;;;;;7772493;22;20098;-91
2023/12/17 06:09:49;;;;;;;8.00;4.85;;;5.90;67.30;;;;;;7773825;22;20015;-90
2023/12/17 06:12:53;;;;;;;7.60;3.15;;;6.00;67.30;;;;;;7799988;22;20007;-89
2023/12/17 06:15:54;;;;;;;6.57;3.45;;;6.10;67.10;;;;;;7811145;22;20041;-90
2023/12/17 06:18:57;;;;;;;10.60;3.75;;;6.10;67.10;;;;;;7786761;22;20022;-91
2023/12/17 06:22:02;;;;;;;11.88;3.90;;;6.10;66.90;;;;;;7773042;22;20015;-90
2023/12/17 06:25:10;;;;;;;8.75;3.85;;;6.10;66.80;;;;;;7806553;22;19999;-92
2023/12/17 06:28:12;;;;;;;6.50;3.13;;;6.20;66.70;;;;;;7772980;22;20066;-90
2023/12/17 06:31:17;;;;;;;8.68;4.38;;;6.20;66.50;;;;;;7780068;22;20078;-91
2023/12/17 06:34:25;;;;;;;8.38;3.90;;;6.20;66.50;;;;;;7772047;22;20124;-91
2023/12/17 06:37:27;;;;;;;5.72;3.50;;;6.30;66.40;;;;;;7747669;22;20019;-90
2023/12/17 06:40:28;;;;;;;7.38;4.95;;;6.30;66.10;;;;;;7773049;22;20034;-91
2023/12/17 06:43:29;;;;;;;9.13;4.30;;;6.30;66.00;;;;;;7772589;22;20007;-91
2023/12/17 06:46:31;;;;;;;7.25;4.00;;;6.30;66.00;;;;;;7771602;22;20042;-90
2023/12/17 06:49:33;;;;;;;7.90;4.25;;;6.30;65.90;;;;;;7770654;22;20043;-90
2023/12/17 06:52:34;;;;;;;5.03;3.92;;;6.30;66.00;;;;;;7772891;22;20054;-90
2023/12/17 06:55:45;;;;;;;11.85;4.22;;;6.30;66.00;;;;;;7772008;22;20026;-91
2023/12/17 06:58:47;;;;;;;7.88;4.13;;;6.30;66.00;;;;;;7801724;22;20081;-90
2023/12/17 07:01:49;;;;;;;9.13;4.40;;;6.40;66.00;;;;;;7774253;22;20019;-91
2023/12/17 07:04:54;;;;;;;11.10;4.07;;;6.40;66.10;;;;;;7748414;22;20019;-91
2023/12/17 07:07:55;;;;;;;4.45;3.28;;;6.40;66.10;;;;;;7774537;22;20026;-92
2023/12/17 07:10:57;;;;;;;9.50;4.72;;;6.40;66.00;;;;;;7773846;22;20015;-91
2023/12/17 07:13:59;;;;;;;9.93;4.82;;;6.40;65.90;;;;;;7774777;22;20057;-91
2023/12/17 07:17:00;;;;;;;8.13;4.45;;;6.70;66.10;;;;;;7772298;22;20430;-91
2023/12/17 07:20:03;;;;;;;17.98;4.45;;;6.40;65.80;;;;;;7768921;22;20099;-91
2023/12/17 07:23:04;;;;;;;4.65;4.00;;;6.40;66.10;;;;;;7799243;22;20011;-90
2023/12/17 07:26:06;;;;;;;12.57;5.72;;;6.40;65.70;;;;;;7773250;22;20043;-89
2023/12/17 07:29:07;;;;;;;9.25;4.80;;;6.30;65.70;;;;;;7774166;22;20405;-92
2023/12/17 07:32:12;;;;;;;8.13;3.50;;;6.30;65.80;;;;;;7798638;22;20031;-92
2023/12/17 07:35:14;;;;;;;6.68;3.60;;;6.20;65.90;;;;;;7771911;22;20722;-90
2023/12/17 07:38:15;;;;;;;10.35;5.32;;;6.20;66.00;;;;;;7772999;22;20043;-91
2023/12/17 07:41:16;;;;;;;9.95;4.95;;;6.20;66.10;;;;;;7772070;22;20449;-92
2023/12/17 07:44:22;;;;;;;11.70;4.32;;;6.20;66.10;;;;;;7749250;22;20015;-90
2023/12/17 07:47:23;;;;;;;6.82;3.53;;;6.20;66.00;;;;;;7801203;22;20657;-91
2023/12/17 07:50:27;;;;;;;8.38;3.90;;;6.30;66.10;;;;;;7778331;22;20011;-90
2023/12/17 07:53:29;;;;;;;7.85;5.00;;;6.30;66.00;;;;;;7754320;22;20008;-92
2023/12/17 07:56:35;;;;;;;16.52;4.03;;;6.30;66.10;;;;;;7806463;22;20008;-91
2023/12/17 07:59:39;;;;;;;13.75;4.80;;;6.10;66.00;;;;;;7806908;22;20014;-92
2023/12/17 08:02:45;;;;;;;7.05;3.65;;;6.30;66.10;;;;;;7781542;22;20019;-93
2023/12/17 08:05:46;;;;;;;19.08;4.22;;;6.30;66.00;;;;;;7809955;22;20019;-93
2023/12/17 08:08:50;;;;;;;8.20;3.90;;;6.30;65.90;;;;;;7810028;22;20007;-93
2023/12/17 08:11:56;;;;;;;9.13;4.88;;;6.30;65.90;;;;;;7815156;22;20057;-92
2023/12/17 08:14:58;;;;;;;13.98;5.00;;;6.20;66.10;;;;;;7812422;22;20047;-92
2023/12/17 08:18:01;;;;;;;6.53;3.53;;;6.20;66.40;;;;;;7782902;22;20040;-87
2023/12/17 08:21:06;;;;;;;13.68;5.78;;;6.30;66.70;;;;;;7774122;22;20059;-90
2023/12/17 08:24:09;;;;;;;13.27;6.15;;;6.30;66.70;;;;;;7800553;22;20011;-91
2023/12/17 08:27:13;;;;;;;14.02;5.82;;;6.40;66.50;;;;;;7754359;22;20016;-89
2023/12/17 08:30:14;;;;;;;11.27;5.35;;;6.50;66.30;;;;;;7774713;22;20015;-91
2023/12/17 08:33:17;;;;;;;11.93;6.20;;;6.60;66.00;;;;;;7781216;22;20011;-93
2023/12/17 08:36:25;;;;;;;11.20;4.50;;;6.70;65.70;;;;;;7812585;22;20027;-93
2023/12/17 08:39:40;;;;;;;8.75;5.57;;;6.70;65.70;;;;;;7788257;22;20007;-95
2023/12/17 08:42:48;;;;;;;12.60;4.28;;;6.90;65.70;;;;;;7791666;22;19999;-93
2023/12/17 11:23:34;;;;;;;18.27;8.10;;;15.30;44.40;;;;;;7835252;22;20027;-93
2023/12/17 11:26:48;;;;;;;16.23;6.07;;;15.70;44.20;;;;;;7779176;22;20174;-93
2023/12/17 11:29:56;;;;;;;16.73;7.70;;;16.10;43.20;;;;;;7831252;22;20011;-90
2023/12/17 11:32:58;;;;;;;12.70;6.80;;;16.60;42.30;;;;;;7779077;22;20383;-94
2023/12/17 11:36:01;;;;;;;27.52;11.18;;;16.90;41.30;;;;;;7779645;22;20007;-94
2023/12/17 11:39:04;;;;;;;23.52;8.32;;;16.60;41.50;;;;;;7789341;22;20019;-95
2023/12/17 11:42:25;;;;;;;16.48;6.93;;;15.90;42.80;;;;;;7789296;22;20011;-93
2023/12/17 11:45:47;;;;;;;17.23;8.18;;;15.00;44.20;;;;;;7734092;22;20094;-93
2023/12/17 11:48:55;;;;;;;11.35;6.22;;;14.20;46.00;;;;;;7796260;22;20015;-94
2023/12/17 11:52:08;;;;;;;24.45;9.18;;;13.70;47.00;;;;;;7774125;22;20052;-94
2023/12/17 11:55:11;;;;;;;14.32;7.57;;;13.30;47.90;;;;;;7796967;22;20030;-92
2023/12/17 11:58:53;;;;;;;19.75;7.82;;;12.90;48.80;;;;;;7764528;22;20007;-93
2023/12/17 12:01:55;;;;;;;17.15;7.97;;;12.50;49.70;;;;;;7784410;22;20015;-95
2023/12/17 12:04:59;;;;;;;16.10;7.88;;;12.30;50.40;;;;;;7809568;22;20073;-92
2023/12/17 12:08:01;;;;;;;16.25;7.00;;;12.20;50.90;;;;;;7782866;22;20015;-93
2023/12/17 12:11:05;;;;;;;14.90;7.13;;;12.10;51.30;;;;;;7758529;22;20021;-91
2023/12/17 12:14:08;;;;;;;20.08;7.32;;;12.00;51.70;;;;;;7804399;22;20448;-91
2023/12/17 12:18:02;;;;;;;23.92;9.80;;;11.90;52.40;;;;;;7813750;22;20076;-94
2023/12/17 12:21:23;;;;;;;26.30;10.10;;;11.80;52.20;;;;;;7669270;23;20020;-92
2023/12/17 12:24:42;;;;;;;19.48;7.60;;;11.90;52.50;;;;;;7718290;23;20059;-93
2023/12/17 12:27:46;;;;;;;14.15;6.80;;;11.80;52.50;;;;;;7701835;23;20024;-91
2023/12/17 12:30:47;;;;;;;16.17;6.53;;;11.80;52.50;;;;;;7725139;23;20008;-90
2023/12/17 12:33:59;;;;;;;20.27;7.95;;;11.70;52.70;;;;;;7707265;23;20004;-92
2023/12/17 12:37:02;;;;;;;10.57;5.63;;;11.70;52.80;;;;;;7715023;23;20032;-89
2023/12/17 12:40:08;;;;;;;8.90;5.45;;;11.70;52.70;;;;;;7688186;23;20604;-91
2023/12/17 12:43:16;;;;;;;13.35;6.25;;;11.60;52.70;;;;;;7714430;23;20588;-91
2023/12/17 12:46:22;;;;;;;18.27;6.90;;;11.60;52.80;;;;;;7707552;23;20023;-90
2023/12/17 12:49:28;;;;;;;;;;;11.50;53.00;;;;;;7709190;23;20119;-90
2023/12/17 12:52:35;;;;;;;14.50;6.13;;;11.60;53.10;;;;;;7721016;23;20035;-90
2023/12/17 12:55:59;;;;;;;14.35;5.47;;;11.50;53.10;;;;;;7737861;22;20008;-90
2023/12/17 12:59:26;;;;;;;16.90;7.32;;;11.60;53.20;;;;;;7768202;22;20011;-93
2023/12/17 13:02:32;;;;;;;17.95;6.95;;;11.60;53.40;;;;;;7796417;22;20446;-90
2023/12/17 13:05:34;;;;;;;14.05;4.60;;;11.50;53.40;;;;;;7761765;22;20023;-91
2023/12/17 13:08:37;;;;;;;18.27;6.05;;;11.50;53.50;;;;;;7758493;22;20394;-88
2023/12/17 13:11:39;;;;;;;12.48;5.78;;;11.60;53.50;;;;;;7760007;22;20012;-93
2023/12/17 13:14:43;;;;;;;12.80;5.53;;;11.50;53.50;;;;;;7794151;22;20018;-90
2023/12/17 13:17:45;;;;;;;15.40;6.32;;;11.70;53.50;;;;;;7789951;22;20575;-91
2023/12/17 15:16:26;;;;;;;12.52;4.60;;;11.90;54.00;;;;;;7826991;22;20102;-93
2023/12/17 15:19:29;;;;;;;10.02;5.13;;;11.90;54.20;;;;;;7814411;22;20019;-92
2023/12/17 15:47:27;;;;;;;14.10;4.68;;;11.60;54.40;;;;;;7821153;22;20016;-79
2023/12/17 15:50:30;;;;;;;8.02;4.47;;;11.50;54.60;;;;;;7792549;22;20051;-74
2023/12/17 15:53:31;;;;;;;11.50;4.38;;;11.50;54.80;;;;;;7793949;22;20441;-74
2023/12/17 15:56:32;;;;;;;15.38;4.57;;;11.50;54.90;;;;;;7771383;22;20019;-74
2023/12/17 15:59:34;;;;;;;12.02;4.40;;;11.50;55.00;;;;;;7823336;22;20047;-73
2023/12/17 16:02:35;;;;;;;12.90;5.40;;;11.40;55.00;;;;;;7823323;22;20404;-74
2023/12/17 16:05:37;;;;;;;14.02;5.90;;;11.40;55.10;;;;;;7818581;22;20008;-74
2023/12/17 16:08:40;;;;;;;15.40;5.05;;;11.40;55.20;;;;;;7811099;22;20038;-75
2023/12/17 16:11:41;;;;;;;10.35;4.82;;;11.40;55.20;;;;;;7762277;22;20019;-74
2023/12/17 16:14:44;;;;;;;11.52;5.00;;;11.40;55.30;;;;;;7789871;22;20061;-79
2023/12/17 16:17:46;;;;;;;12.77;5.45;;;11.40;55.40;;;;;;7788502;22;20007;-77
2023/12/17 16:20:49;;;;;;;10.07;4.75;;;11.30;55.50;;;;;;7738969;22;20007;-77
2023/12/17 16:23:49;;;;;;;13.32;4.95;;;11.30;55.50;;;;;;7763870;22;20060;-77
2023/12/17 16:27:17;;;;;;;13.38;6.07;;;11.20;55.60;;;;;;7788530;22;20019;-77
2023/12/17 16:34:41;;;;;;;11.02;5.93;;;11.20;55.80;;;;;;7816579;22;20302;-78
2023/12/17 16:37:43;;;;;;;20.73;7.28;;;11.10;55.90;;;;;;7789457;22;20014;-77
2023/12/17 16:40:44;;;;;;;17.50;6.63;;;11.10;56.00;;;;;;7762513;22;20015;-77
2023/12/17 16:43:46;;;;;;;14.05;6.28;;;11.00;56.00;;;;;;7788587;22;20022;-76
2023/12/17 16:46:47;;;;;;;28.83;8.38;;;11.00;56.10;;;;;;7788163;22;20751;-77
2023/12/17 16:49:50;;;;;;;23.95;8.20;;;11.00;56.10;;;;;;7789776;22;20011;-76
2023/12/17 16:52:51;;;;;;;26.67;10.70;;;10.90;56.20;;;;;;7762623;22;20003;-77
2023/12/17 16:55:53;;;;;;;20.05;8.30;;;11.00;56.60;;;;;;7788489;22;20054;-78
2023/12/17 16:58:54;;;;;;;20.67;8.90;;;10.90;56.30;;;;;;7787869;22;20093;-76
2023/12/17 17:02:00;;;;;;;17.83;7.55;;;10.90;56.40;;;;;;7787220;22;20030;-77
2023/12/17 17:05:00;;;;;;;18.30;7.53;;;10.90;56.50;;;;;;7786229;22;20471;-78
2023/12/17 17:08:01;;;;;;;13.93;7.25;;;10.90;56.60;;;;;;7762150;22;20099;-75
2023/12/17 17:11:02;;;;;;;12.98;6.75;;;10.80;56.60;;;;;;7763940;22;20048;-78
2023/12/17 17:14:06;;;;;;;18.98;7.15;;;10.80;56.70;;;;;;7815485;22;20202;-78
2023/12/17 17:17:07;;;;;;;12.65;6.40;;;10.80;56.80;;;;;;7787911;22;20014;-78
2023/12/17 17:20:10;;;;;;;25.00;8.25;;;10.70;56.80;;;;;;7787793;22;20734;-77
2023/12/17 17:23:12;;;;;;;27.80;6.93;;;10.70;56.90;;;;;;7815402;22;20007;-78
2023/12/17 17:26:13;;;;;;;24.25;8.73;;;10.70;57.00;;;;;;7786701;22;20011;-76
2023/12/17 17:29:15;;;;;;;22.30;8.70;;;10.60;57.10;;;;;;7760104;22;20106;-75
2023/12/17 17:32:16;;;;;;;21.13;8.68;;;10.60;57.10;;;;;;7782667;22;20012;-77
2023/12/17 17:35:17;;;;;;;20.08;7.88;;;10.50;57.20;;;;;;7783258;22;20063;-78
2023/12/17 17:38:20;;;;;;;24.75;8.05;;;10.50;57.20;;;;;;7783827;22;20072;-77
2023/12/17 17:41:22;;;;;;;22.33;8.57;;;10.50;57.20;;;;;;7810854;22;20003;-76
2023/12/17 17:44:24;;;;;;;19.33;7.68;;;10.50;57.30;;;;;;7757001;22;20094;-76
2023/12/17 17:47:26;;;;;;;20.60;8.52;;;10.50;57.50;;;;;;7782044;22;20029;-77
2023/12/17 17:50:27;;;;;;;36.03;13.85;;;10.50;57.60;;;;;;7782964;22;20011;-75
2023/12/17 17:53:28;;;;;;;20.45;7.72;;;10.40;57.60;;;;;;7759774;22;20129;-74
2023/12/17 17:56:29;;;;;;;20.38;7.97;;;10.40;57.80;;;;;;7783133;22;20014;-73
2023/12/17 17:59:30;;;;;;;11.18;6.05;;;10.40;57.90;;;;;;7813333;22;20174;-73
2023/12/17 18:02:31;;;;;;;25.30;10.73;;;10.40;58.00;;;;;;7759352;22;20049;-74
2023/12/17 18:05:32;;;;;;;28.10;12.13;;;10.40;58.60;;;;;;7759425;22;20038;-72
2023/12/17 18:08:33;;;;;;;23.67;9.82;;;10.30;58.10;;;;;;7811877;22;20490;-71
2023/12/17 18:11:33;;;;;;;37.28;11.90;;;10.40;58.20;;;;;;7784868;22;20019;-72
2023/12/17 18:14:36;;;;;;;44.42;14.65;;;10.30;58.30;;;;;;7811901;22;20020;-73
2023/12/17 18:17:37;;;;;;;34.65;14.20;;;10.30;58.30;;;;;;7784212;22;20019;-73
2023/12/17 18:20:37;;;;;;;27.35;12.38;;;10.20;58.40;;;;;;7784236;22;20011;-75
2023/12/17 18:23:38;;;;;;;19.23;8.88;;;10.20;58.40;;;;;;7785716;22;20693;-72
2023/12/17 18:26:39;;;;;;;14.85;8.00;;;10.20;58.50;;;;;;7785661;22;20094;-72
2023/12/17 18:29:41;;;;;;;21.90;7.43;;;10.10;58.60;;;;;;7811985;22;20007;-73
2023/12/17 18:32:42;;;;;;;15.02;7.35;;;10.10;58.70;;;;;;7815200;22;20022;-73
2023/12/17 18:35:44;;;;;;;20.70;7.85;;;10.10;58.90;;;;;;7782484;22;20011;-72
2023/12/17 18:38:45;;;;;;;47.00;16.20;;;10.00;59.00;;;;;;7783781;22;20022;-74
2023/12/17 18:41:46;;;;;;;30.27;13.25;;;9.90;59.10;;;;;;7785519;22;20015;-73
2023/12/17 18:44:47;;;;;;;27.23;11.10;;;9.90;59.30;;;;;;7786008;22;20068;-72
2023/12/17 18:47:48;;;;;;;37.03;14.05;;;9.90;59.30;;;;;;7814321;22;20007;-73
2023/12/17 18:50:49;;;;;;;30.35;10.77;;;9.90;59.40;;;;;;7786664;22;20290;-72
2023/12/17 18:53:51;;;;;;;31.35;10.45;;;9.90;59.30;;;;;;7711477;22;20331;-73
2023/12/17 18:56:52;;;;;;;43.38;13.95;;;10.10;59.30;;;;;;7786166;22;20014;-72
2023/12/17 18:59:53;;;;;;;24.92;11.05;;;9.90;59.30;;;;;;7782603;22;20729;-72
2023/12/17 19:02:54;;;;;;;21.73;9.18;;;9.90;59.40;;;;;;7755870;22;20094;-72
2023/12/17 19:05:55;;;;;;;26.95;7.90;;;9.90;59.40;;;;;;7809717;22;20014;-71
2023/12/17 19:08:57;;;;;;;24.20;9.15;;;9.80;59.60;;;;;;7809332;22;20102;-73
2023/12/17 19:11:59;;;;;;;21.27;8.95;;;9.70;59.70;;;;;;7755865;22;20035;-73
2023/12/17 19:15:00;;;;;;;21.45;8.40;;;9.60;59.80;;;;;;7756233;22;20031;-74
2023/12/17 19:18:01;;;;;;;16.48;8.10;;;9.60;60.00;;;;;;7781588;22;20022;-73
2023/12/17 19:21:03;;;;;;;22.70;8.15;;;9.50;60.30;;;;;;7781000;22;20058;-72
2023/12/17 19:24:06;;;;;;;24.92;8.30;;;9.50;60.40;;;;;;7780820;22;20022;-73
2023/12/17 19:27:07;;;;;;;15.88;6.32;;;9.50;60.50;;;;;;7783968;22;20077;-73
2023/12/17 19:30:09;;;;;;;24.10;10.15;;;9.40;60.60;;;;;;7784554;22;20011;-73
2023/12/17 19:33:09;;;;;;;19.50;7.97;;;9.40;60.70;;;;;;7783653;22;20095;-74
2023/12/17 19:36:10;;;;;;;19.98;8.95;;;9.40;60.60;;;;;;7811666;22;20118;-72
2023/12/17 19:39:11;;;;;;;18.10;8.40;;;9.40;60.70;;;;;;7758712;22;20382;-73
2023/12/17 19:42:13;;;;;;;19.63;8.10;;;9.40;60.70;;;;;;7807536;22;20011;-74
2023/12/17 19:45:14;;;;;;;31.95;9.32;;;9.40;60.90;;;;;;7783458;22;20034;-73
2023/12/17 19:48:15;;;;;;;15.65;7.35;;;9.30;61.00;;;;;;7810585;22;20011;-73
2023/12/17 19:51:18;;;;;;;21.02;8.13;;;9.30;61.20;;;;;;7788195;22;20432;-73
2023/12/17 19:54:19;;;;;;;29.33;10.13;;;9.20;61.30;;;;;;7787301;22;20018;-73
2023/12/17 19:57:20;;;;;;;24.10;10.55;;;9.20;61.50;;;;;;7788239;22;20015;-77
2023/12/17 20:00:22;;;;;;;20.35;8.27;;;9.10;61.50;;;;;;7787050;22;20019;-74
2023/12/17 20:03:23;;;;;;;24.25;8.98;;;9.10;61.70;;;;;;7760988;22;20011;-73
2023/12/17 20:06:29;;;;;;;28.58;11.65;;;9.10;61.90;;;;;;7762307;22;20049;-74
2023/12/17 20:09:30;;;;;;;25.17;9.93;;;9.00;62.00;;;;;;7762710;22;20065;-74
2023/12/17 20:12:31;;;;;;;20.92;9.93;;;8.90;62.20;;;;;;7785532;22;20014;-73
2023/12/17 20:15:32;;;;;;;31.08;10.85;;;8.90;62.40;;;;;;7762716;22;20022;-73
2023/12/17 20:18:34;;;;;;;37.42;11.68;;;8.80;62.40;;;;;;7786526;22;20062;-74
2023/12/17 20:21:36;;;;;;;25.35;10.02;;;8.80;62.50;;;;;;7789964;22;20094;-74
2023/12/17 20:24:39;;;;;;;27.38;9.63;;;8.80;62.70;;;;;;7816294;22;20027;-74
2023/12/17 20:27:42;;;;;;;20.90;9.38;;;8.80;62.70;;;;;;7816460;22;20014;-73
2023/12/17 20:30:43;;;;;;;17.23;7.47;;;8.80;62.90;;;;;;7763392;22;20098;-74
2023/12/17 20:33:45;;;;;;;16.17;7.28;;;8.70;62.90;;;;;;7790261;22;20010;-73
2023/12/17 20:36:47;;;;;;;15.27;8.25;;;8.70;63.00;;;;;;7816594;22;20026;-74
2023/12/17 20:39:48;;;;;;;13.85;6.47;;;8.70;63.10;;;;;;7763148;22;20105;-74
2023/12/17 20:42:49;;;;;;;20.85;8.30;;;8.70;63.20;;;;;;7763502;22;20460;-73
2023/12/17 20:45:50;;;;;;;21.45;9.15;;;8.70;63.30;;;;;;7816701;22;20030;-73
2023/12/17 20:48:51;;;;;;;21.42;9.27;;;8.70;63.30;;;;;;7816754;22;20003;-73
2023/12/17 20:51:52;;;;;;;18.23;7.70;;;8.70;63.30;;;;;;7762180;22;20014;-74
2023/12/17 20:54:53;;;;;;;18.88;8.85;;;8.70;63.30;;;;;;7788055;22;20003;-72